sensor_id;sensor_type;location;lat;lon;timestamp;temperature;humidity
16503;DHT22;53067;48.114;11.694;2023-05-10T00:01:20;15.60;97.00
16503;DHT22;53067;48.114;11.694;2023-05-10T00:03:47;15.50;97.00
16503;DHT22;53067;48.114;11.694;2023-05-10T00:06:15;15.60;97.10
16503;DHT22;53067;48.114;11.694;2023-05-10T00:08:42;15.50;97.20
16503;DHT22;53067;48.114;11.694;2023-05-10T00:11:10;15.50;97.20
16503;DHT22;53067;48.114;11.694;2023-05-10T00:13:37;15.50;97.30
16503;DHT22;53067;48.114;11.694;2023-05-10T00:16:05;15.50;97.40
16503;DHT22;53067;48.114;11.694;2023-05-10T00:18:33;15.50;97.30
16503;DHT22;53067;48.114;11.694;2023-05-10T00:21:00;15.50;97.20
16503;DHT22;53067;48.114;11.694;2023-05-10T00:23:28;15.50;97.30
16503;DHT22;53067;48.114;11.694;2023-05-10T00:25:56;15.50;97.40
16503;DHT22;53067;48.114;11.694;2023-05-10T00:28:23;15.40;97.50
16503;DHT22;53067;48.114;11.694;2023-05-10T00:30:51;15.30;97.50
16503;DHT22;53067;48.114;11.694;2023-05-10T00:33:18;15.40;97.70
16503;DHT22;53067;48.114;11.694;2023-05-10T00:35:55;15.50;97.80
16503;DHT22;53067;48.114;11.694;2023-05-10T00:38:22;15.50;97.50
16503;DHT22;53067;48.114;11.694;2023-05-10T00:40:50;15.50;96.80
16503;DHT22;53067;48.114;11.694;2023-05-10T00:43:17;15.50;96.70
16503;DHT22;53067;48.114;11.694;2023-05-10T00:45:45;15.50;96.80
16503;DHT22;53067;48.114;11.694;2023-05-10T00:48:13;15.50;96.70
16503;DHT22;53067;48.114;11.694;2023-05-10T00:50:40;15.40;96.80
16503;DHT22;53067;48.114;11.694;2023-05-10T00:53:09;15.40;96.70
16503;DHT22;53067;48.114;11.694;2023-05-10T00:55:37;15.40;96.70
16503;DHT22;53067;48.114;11.694;2023-05-10T00:58:05;15.30;96.60
16503;DHT22;53067;48.114;11.694;2023-05-10T01:00:33;15.30;96.70
16503;DHT22;53067;48.114;11.694;2023-05-10T01:03:01;15.30;96.80
16503;DHT22;53067;48.114;11.694;2023-05-10T01:05:28;15.40;96.90
16503;DHT22;53067;48.114;11.694;2023-05-10T01:10:45;15.40;96.70
16503;DHT22;53067;48.114;11.694;2023-05-10T01:13:23;15.30;96.70
16503;DHT22;53067;48.114;11.694;2023-05-10T01:15:48;15.40;96.80
16503;DHT22;53067;48.114;11.694;2023-05-10T01:18:17;15.40;96.70
16503;DHT22;53067;48.114;11.694;2023-05-10T01:20:48;15.50;96.70
16503;DHT22;53067;48.114;11.694;2023-05-10T01:26:14;15.50;96.90
16503;DHT22;53067;48.114;11.694;2023-05-10T01:29:06;15.40;96.70
16503;DHT22;53067;48.114;11.694;2023-05-10T01:32:00;15.40;96.70
16503;DHT22;53067;48.114;11.694;2023-05-10T01:34:35;15.30;96.70
16503;DHT22;53067;48.114;11.694;2023-05-10T01:37:13;15.30;96.90
16503;DHT22;53067;48.114;11.694;2023-05-10T01:42:14;15.30;96.90
16503;DHT22;53067;48.114;11.694;2023-05-10T01:47:44;15.30;96.90
16503;DHT22;53067;48.114;11.694;2023-05-10T01:50:24;15.20;96.80
16503;DHT22;53067;48.114;11.694;2023-05-10T01:52:53;15.20;96.80
16503;DHT22;53067;48.114;11.694;2023-05-10T01:55:20;15.30;96.80
16503;DHT22;53067;48.114;11.694;2023-05-10T01:57:51;15.30;97.00
16503;DHT22;53067;48.114;11.694;2023-05-10T02:00:19;15.30;96.70
16503;DHT22;53067;48.114;11.694;2023-05-10T02:02:49;15.30;96.80
16503;DHT22;53067;48.114;11.694;2023-05-10T02:05:17;15.20;97.20
16503;DHT22;53067;48.114;11.694;2023-05-10T02:07:47;15.20;97.10
16503;DHT22;53067;48.114;11.694;2023-05-10T02:10:16;15.30;97.10
16503;DHT22;53067;48.114;11.694;2023-05-10T02:12:47;15.30;97.00
16503;DHT22;53067;48.114;11.694;2023-05-10T02:15:22;15.30;96.90
16503;DHT22;53067;48.114;11.694;2023-05-10T02:17:46;15.30;97.00
16503;DHT22;53067;48.114;11.694;2023-05-10T02:20:16;15.30;97.10
16503;DHT22;53067;48.114;11.694;2023-05-10T02:22:45;15.30;97.20
16503;DHT22;53067;48.114;11.694;2023-05-10T02:25:14;15.40;97.30
16503;DHT22;53067;48.114;11.694;2023-05-10T02:27:44;15.30;97.20
16503;DHT22;53067;48.114;11.694;2023-05-10T02:30:22;15.30;97.10
16503;DHT22;53067;48.114;11.694;2023-05-10T02:32:50;15.30;97.50
16503;DHT22;53067;48.114;11.694;2023-05-10T02:35:19;15.30;96.70
16503;DHT22;53067;48.114;11.694;2023-05-10T02:37:48;15.20;96.80
16503;DHT22;53067;48.114;11.694;2023-05-10T02:40:17;15.20;96.80
16503;DHT22;53067;48.114;11.694;2023-05-10T02:42:46;15.20;96.80
16503;DHT22;53067;48.114;11.694;2023-05-10T02:45:18;15.20;96.90
16503;DHT22;53067;48.114;11.694;2023-05-10T02:47:46;15.30;96.70
16503;DHT22;53067;48.114;11.694;2023-05-10T02:50:13;15.20;96.80
16503;DHT22;53067;48.114;11.694;2023-05-10T02:52:44;15.30;96.80
16503;DHT22;53067;48.114;11.694;2023-05-10T02:55:14;15.30;96.90
16503;DHT22;53067;48.114;11.694;2023-05-10T02:57:50;15.30;96.80
16503;DHT22;53067;48.114;11.694;2023-05-10T03:00:13;15.30;96.80
16503;DHT22;53067;48.114;11.694;2023-05-10T03:02:41;15.20;96.80
16503;DHT22;53067;48.114;11.694;2023-05-10T03:05:08;15.20;96.90
16503;DHT22;53067;48.114;11.694;2023-05-10T03:07:36;15.20;97.10
16503;DHT22;53067;48.114;11.694;2023-05-10T03:10:05;15.20;96.90
16503;DHT22;53067;48.114;11.694;2023-05-10T03:15:47;15.20;96.80
16503;DHT22;53067;48.114;11.694;2023-05-10T03:20:48;15.10;96.90
16503;DHT22;53067;48.114;11.694;2023-05-10T03:23:27;15.00;97.00
16503;DHT22;53067;48.114;11.694;2023-05-10T03:25:56;15.00;97.20
16503;DHT22;53067;48.114;11.694;2023-05-10T03:28:25;14.90;97.50
16503;DHT22;53067;48.114;11.694;2023-05-10T03:30:56;15.00;97.40
16503;DHT22;53067;48.114;11.694;2023-05-10T03:33:24;15.00;97.30
16503;DHT22;53067;48.114;11.694;2023-05-10T03:35:52;14.90;97.20
16503;DHT22;53067;48.114;11.694;2023-05-10T03:38:19;14.90;97.30
16503;DHT22;53067;48.114;11.694;2023-05-10T03:40:47;14.90;97.50
16503;DHT22;53067;48.114;11.694;2023-05-10T03:43:14;14.90;97.50
16503;DHT22;53067;48.114;11.694;2023-05-10T03:45:42;14.80;97.40
16503;DHT22;53067;48.114;11.694;2023-05-10T03:48:09;14.90;97.50
16503;DHT22;53067;48.114;11.694;2023-05-10T03:50:37;14.80;97.50
16503;DHT22;53067;48.114;11.694;2023-05-10T03:53:05;14.90;97.50
16503;DHT22;53067;48.114;11.694;2023-05-10T03:55:32;14.90;97.40
16503;DHT22;53067;48.114;11.694;2023-05-10T03:58:01;14.90;97.40
16503;DHT22;53067;48.114;11.694;2023-05-10T04:00:29;14.90;97.60
16503;DHT22;53067;48.114;11.694;2023-05-10T04:02:57;14.80;97.40
16503;DHT22;53067;48.114;11.694;2023-05-10T04:05:24;14.70;97.60
16503;DHT22;53067;48.114;11.694;2023-05-10T04:07:52;14.70;97.70
16503;DHT22;53067;48.114;11.694;2023-05-10T04:10:19;14.70;97.90
16503;DHT22;53067;48.114;11.694;2023-05-10T04:12:47;14.80;97.80
16503;DHT22;53067;48.114;11.694;2023-05-10T04:15:15;14.90;97.80
16503;DHT22;53067;48.114;11.694;2023-05-10T04:17:43;14.80;97.80
16503;DHT22;53067;48.114;11.694;2023-05-10T04:20:12;14.80;97.60
16503;DHT22;53067;48.114;11.694;2023-05-10T04:22:39;14.90;97.90
16503;DHT22;53067;48.114;11.694;2023-05-10T04:25:08;14.90;95.20
16503;DHT22;53067;48.114;11.694;2023-05-10T04:27:35;14.80;94.50
16503;DHT22;53067;48.114;11.694;2023-05-10T04:30:03;14.80;94.30
16503;DHT22;53067;48.114;11.694;2023-05-10T04:32:38;14.80;94.20
16503;DHT22;53067;48.114;11.694;2023-05-10T04:35:06;14.90;94.00
16503;DHT22;53067;48.114;11.694;2023-05-10T04:37:33;14.80;93.90
16503;DHT22;53067;48.114;11.694;2023-05-10T04:40:01;14.80;94.00
16503;DHT22;53067;48.114;11.694;2023-05-10T04:42:29;14.70;94.00
16503;DHT22;53067;48.114;11.694;2023-05-10T04:44:57;14.70;94.50
16503;DHT22;53067;48.114;11.694;2023-05-10T04:47:24;14.60;93.90
16503;DHT22;53067;48.114;11.694;2023-05-10T04:49:52;14.70;93.90
16503;DHT22;53067;48.114;11.694;2023-05-10T04:52:19;14.70;94.20
16503;DHT22;53067;48.114;11.694;2023-05-10T04:54:47;14.70;94.10
16503;DHT22;53067;48.114;11.694;2023-05-10T04:57:14;14.70;94.20
16503;DHT22;53067;48.114;11.694;2023-05-10T04:59:42;14.70;94.20
16503;DHT22;53067;48.114;11.694;2023-05-10T05:02:09;14.70;94.30
16503;DHT22;53067;48.114;11.694;2023-05-10T05:04:37;14.60;94.10
16503;DHT22;53067;48.114;11.694;2023-05-10T05:07:04;14.60;94.30
16503;DHT22;53067;48.114;11.694;2023-05-10T05:09:33;14.20;93.90
16503;DHT22;53067;48.114;11.694;2023-05-10T05:12:00;14.60;94.00
16503;DHT22;53067;48.114;11.694;2023-05-10T05:14:28;14.50;94.30
16503;DHT22;53067;48.114;11.694;2023-05-10T05:16:55;14.40;94.40
16503;DHT22;53067;48.114;11.694;2023-05-10T05:19:23;14.30;94.50
16503;DHT22;53067;48.114;11.694;2023-05-10T05:21:51;14.30;94.50
16503;DHT22;53067;48.114;11.694;2023-05-10T05:24:18;14.20;94.80
16503;DHT22;53067;48.114;11.694;2023-05-10T05:26:46;14.20;95.00
16503;DHT22;53067;48.114;11.694;2023-05-10T05:29:13;14.20;94.80
16503;DHT22;53067;48.114;11.694;2023-05-10T05:31:41;14.20;94.90
16503;DHT22;53067;48.114;11.694;2023-05-10T05:34:08;14.10;94.90
16503;DHT22;53067;48.114;11.694;2023-05-10T05:36:37;14.10;95.00
16503;DHT22;53067;48.114;11.694;2023-05-10T05:39:07;14.10;94.60
16503;DHT22;53067;48.114;11.694;2023-05-10T05:41:34;14.10;94.80
16503;DHT22;53067;48.114;11.694;2023-05-10T05:44:02;14.10;95.00
16503;DHT22;53067;48.114;11.694;2023-05-10T05:46:29;14.20;94.50
16503;DHT22;53067;48.114;11.694;2023-05-10T05:48:57;14.20;94.50
16503;DHT22;53067;48.114;11.694;2023-05-10T05:51:24;14.10;94.00
16503;DHT22;53067;48.114;11.694;2023-05-10T05:53:52;14.00;94.50
16503;DHT22;53067;48.114;11.694;2023-05-10T05:56:20;14.00;94.60
16503;DHT22;53067;48.114;11.694;2023-05-10T05:58:49;14.00;94.50
16503;DHT22;53067;48.114;11.694;2023-05-10T06:01:17;14.00;94.20
16503;DHT22;53067;48.114;11.694;2023-05-10T06:03:44;14.10;94.20
16503;DHT22;53067;48.114;11.694;2023-05-10T06:06:12;14.10;93.50
16503;DHT22;53067;48.114;11.694;2023-05-10T06:08:39;14.10;93.60
16503;DHT22;53067;48.114;11.694;2023-05-10T06:11:07;14.10;93.40
16503;DHT22;53067;48.114;11.694;2023-05-10T06:13:34;14.00;93.50
16503;DHT22;53067;48.114;11.694;2023-05-10T06:16:04;14.00;93.80
16503;DHT22;53067;48.114;11.694;2023-05-10T06:18:32;14.10;93.80
16503;DHT22;53067;48.114;11.694;2023-05-10T06:20:59;14.20;93.90
16503;DHT22;53067;48.114;11.694;2023-05-10T06:23:27;14.20;93.90
16503;DHT22;53067;48.114;11.694;2023-05-10T06:25:55;14.30;94.10
16503;DHT22;53067;48.114;11.694;2023-05-10T06:28:22;14.40;93.70
16503;DHT22;53067;48.114;11.694;2023-05-10T06:30:50;14.30;93.60
16503;DHT22;53067;48.114;11.694;2023-05-10T06:33:18;14.40;94.00
16503;DHT22;53067;48.114;11.694;2023-05-10T06:35:45;14.50;93.70
16503;DHT22;53067;48.114;11.694;2023-05-10T06:38:13;14.50;93.80
16503;DHT22;53067;48.114;11.694;2023-05-10T06:40:43;14.60;93.60
16503;DHT22;53067;48.114;11.694;2023-05-10T06:43:11;14.60;93.50
16503;DHT22;53067;48.114;11.694;2023-05-10T06:45:38;14.60;93.50
16503;DHT22;53067;48.114;11.694;2023-05-10T06:48:07;14.70;93.50
16503;DHT22;53067;48.114;11.694;2023-05-10T06:50:35;14.70;93.30
16503;DHT22;53067;48.114;11.694;2023-05-10T06:53:02;14.70;93.30
16503;DHT22;53067;48.114;11.694;2023-05-10T06:55:30;14.80;93.30
16503;DHT22;53067;48.114;11.694;2023-05-10T06:57:58;14.80;92.40
16503;DHT22;53067;48.114;11.694;2023-05-10T07:00:25;14.80;92.80
16503;DHT22;53067;48.114;11.694;2023-05-10T07:02:53;14.80;93.00
16503;DHT22;53067;48.114;11.694;2023-05-10T07:05:21;14.80;93.10
16503;DHT22;53067;48.114;11.694;2023-05-10T07:07:49;14.80;93.20
16503;DHT22;53067;48.114;11.694;2023-05-10T07:10:16;14.80;93.00
16503;DHT22;53067;48.114;11.694;2023-05-10T07:12:44;14.90;93.10
16503;DHT22;53067;48.114;11.694;2023-05-10T07:15:11;14.90;92.90
16503;DHT22;53067;48.114;11.694;2023-05-10T07:17:39;14.90;92.80
16503;DHT22;53067;48.114;11.694;2023-05-10T07:20:07;14.90;92.40
16503;DHT22;53067;48.114;11.694;2023-05-10T07:22:35;14.90;92.50
16503;DHT22;53067;48.114;11.694;2023-05-10T07:25:03;15.00;92.80
16503;DHT22;53067;48.114;11.694;2023-05-10T07:27:30;15.00;93.00
16503;DHT22;53067;48.114;11.694;2023-05-10T07:29:59;14.90;92.70
16503;DHT22;53067;48.114;11.694;2023-05-10T07:32:27;14.90;92.40
16503;DHT22;53067;48.114;11.694;2023-05-10T07:34:54;14.80;92.50
16503;DHT22;53067;48.114;11.694;2023-05-10T07:37:22;14.80;92.50
16503;DHT22;53067;48.114;11.694;2023-05-10T07:39:49;14.80;92.70
16503;DHT22;53067;48.114;11.694;2023-05-10T07:42:17;14.90;92.40
16503;DHT22;53067;48.114;11.694;2023-05-10T07:44:44;15.00;92.20
16503;DHT22;53067;48.114;11.694;2023-05-10T07:47:12;15.10;92.70
16503;DHT22;53067;48.114;11.694;2023-05-10T07:49:39;15.20;92.10
16503;DHT22;53067;48.114;11.694;2023-05-10T07:52:07;15.30;91.60
16503;DHT22;53067;48.114;11.694;2023-05-10T07:54:34;15.40;91.60
16503;DHT22;53067;48.114;11.694;2023-05-10T07:57:02;15.50;90.30
16503;DHT22;53067;48.114;11.694;2023-05-10T07:59:29;15.50;90.60
16503;DHT22;53067;48.114;11.694;2023-05-10T08:01:57;15.50;90.10
16503;DHT22;53067;48.114;11.694;2023-05-10T08:04:24;15.60;90.10
16503;DHT22;53067;48.114;11.694;2023-05-10T08:06:52;15.60;90.50
16503;DHT22;53067;48.114;11.694;2023-05-10T08:09:19;15.60;90.00
16503;DHT22;53067;48.114;11.694;2023-05-10T08:11:49;15.70;90.20
16503;DHT22;53067;48.114;11.694;2023-05-10T08:14:17;15.80;90.10
16503;DHT22;53067;48.114;11.694;2023-05-10T08:16:45;15.90;91.40
16503;DHT22;53067;48.114;11.694;2023-05-10T08:19:12;16.00;93.40
16503;DHT22;53067;48.114;11.694;2023-05-10T08:21:40;16.10;93.90
16503;DHT22;53067;48.114;11.694;2023-05-10T08:24:08;16.20;95.10
16503;DHT22;53067;48.114;11.694;2023-05-10T08:26:36;16.20;95.80
16503;DHT22;53067;48.114;11.694;2023-05-10T08:29:03;16.30;95.50
16503;DHT22;53067;48.114;11.694;2023-05-10T08:31:31;16.30;95.30
16503;DHT22;53067;48.114;11.694;2023-05-10T08:33:58;16.30;95.50
16503;DHT22;53067;48.114;11.694;2023-05-10T08:36:26;16.30;95.90
16503;DHT22;53067;48.114;11.694;2023-05-10T08:38:54;16.50;99.20
16503;DHT22;53067;48.114;11.694;2023-05-10T08:41:23;16.60;99.80
16503;DHT22;53067;48.114;11.694;2023-05-10T08:43:53;16.70;99.00
16503;DHT22;53067;48.114;11.694;2023-05-10T08:46:22;16.80;99.90
16503;DHT22;53067;48.114;11.694;2023-05-10T08:48:51;16.90;99.90
16503;DHT22;53067;48.114;11.694;2023-05-10T08:51:22;16.90;99.60
16503;DHT22;53067;48.114;11.694;2023-05-10T08:53:49;17.00;99.90
16503;DHT22;53067;48.114;11.694;2023-05-10T08:56:16;16.90;99.80
16503;DHT22;53067;48.114;11.694;2023-05-10T08:58:44;16.90;98.80
16503;DHT22;53067;48.114;11.694;2023-05-10T09:01:13;16.90;96.30
16503;DHT22;53067;48.114;11.694;2023-05-10T09:03:41;16.80;95.50
16503;DHT22;53067;48.114;11.694;2023-05-10T09:06:08;16.70;96.10
16503;DHT22;53067;48.114;11.694;2023-05-10T09:08:37;16.10;95.40
16503;DHT22;53067;48.114;11.694;2023-05-10T09:11:05;16.50;96.60
16503;DHT22;53067;48.114;11.694;2023-05-10T09:13:33;16.70;94.80
16503;DHT22;53067;48.114;11.694;2023-05-10T09:16:03;16.70;93.40
16503;DHT22;53067;48.114;11.694;2023-05-10T09:18:30;16.80;93.20
16503;DHT22;53067;48.114;11.694;2023-05-10T09:20:58;16.70;93.50
16503;DHT22;53067;48.114;11.694;2023-05-10T09:23:25;16.80;94.60
16503;DHT22;53067;48.114;11.694;2023-05-10T09:26:05;16.80;95.00
16503;DHT22;53067;48.114;11.694;2023-05-10T09:28:53;16.70;95.00
16503;DHT22;53067;48.114;11.694;2023-05-10T09:31:20;16.70;91.90
16503;DHT22;53067;48.114;11.694;2023-05-10T09:33:49;16.70;91.80
16503;DHT22;53067;48.114;11.694;2023-05-10T09:36:17;16.70;91.40
16503;DHT22;53067;48.114;11.694;2023-05-10T09:38:51;16.70;91.10
16503;DHT22;53067;48.114;11.694;2023-05-10T09:41:21;16.80;90.70
16503;DHT22;53067;48.114;11.694;2023-05-10T09:43:49;16.90;91.60
16503;DHT22;53067;48.114;11.694;2023-05-10T09:46:17;16.90;91.50
16503;DHT22;53067;48.114;11.694;2023-05-10T09:48:46;17.10;90.10
16503;DHT22;53067;48.114;11.694;2023-05-10T09:51:24;17.20;89.60
16503;DHT22;53067;48.114;11.694;2023-05-10T09:54:17;17.30;88.10
16503;DHT22;53067;48.114;11.694;2023-05-10T09:56:42;17.30;92.20
16503;DHT22;53067;48.114;11.694;2023-05-10T09:59:11;17.10;92.80
16503;DHT22;53067;48.114;11.694;2023-05-10T10:01:39;17.30;91.90
16503;DHT22;53067;48.114;11.694;2023-05-10T10:04:09;17.40;91.80
16503;DHT22;53067;48.114;11.694;2023-05-10T10:06:37;17.60;91.80
16503;DHT22;53067;48.114;11.694;2023-05-10T10:09:06;17.40;92.70
16503;DHT22;53067;48.114;11.694;2023-05-10T10:11:38;17.60;93.30
16503;DHT22;53067;48.114;11.694;2023-05-10T10:14:06;17.60;93.20
16503;DHT22;53067;48.114;11.694;2023-05-10T10:16:33;17.70;93.20
16503;DHT22;53067;48.114;11.694;2023-05-10T10:19:01;17.70;93.10
16503;DHT22;53067;48.114;11.694;2023-05-10T10:21:29;17.70;93.90
16503;DHT22;53067;48.114;11.694;2023-05-10T10:23:57;17.80;94.40
16503;DHT22;53067;48.114;11.694;2023-05-10T10:26:25;17.80;97.10
16503;DHT22;53067;48.114;11.694;2023-05-10T10:31:46;17.90;96.50
16503;DHT22;53067;48.114;11.694;2023-05-10T10:34:28;17.90;97.80
16503;DHT22;53067;48.114;11.694;2023-05-10T10:36:56;17.90;97.60
16503;DHT22;53067;48.114;11.694;2023-05-10T10:39:25;17.90;97.60
16503;DHT22;53067;48.114;11.694;2023-05-10T10:41:55;17.90;96.20
16503;DHT22;53067;48.114;11.694;2023-05-10T10:50:02;18.00;99.40
16503;DHT22;53067;48.114;11.694;2023-05-10T10:52:27;18.00;99.90
16503;DHT22;53067;48.114;11.694;2023-05-10T10:55:07;18.00;99.90
16503;DHT22;53067;48.114;11.694;2023-05-10T11:00:24;17.80;99.90
16503;DHT22;53067;48.114;11.694;2023-05-10T11:02:53;17.80;99.90
16503;DHT22;53067;48.114;11.694;2023-05-10T11:05:38;17.80;99.90
16503;DHT22;53067;48.114;11.694;2023-05-10T11:13:10;18.10;99.90
16503;DHT22;53067;48.114;11.694;2023-05-10T11:15:39;18.10;91.90
16503;DHT22;53067;48.114;11.694;2023-05-10T11:18:27;18.00;75.70
16503;DHT22;53067;48.114;11.694;2023-05-10T11:21:00;17.90;76.60
16503;DHT22;53067;48.114;11.694;2023-05-10T11:26:08;17.90;77.70
16503;DHT22;53067;48.114;11.694;2023-05-10T11:28:44;17.90;77.60
16503;DHT22;53067;48.114;11.694;2023-05-10T11:31:21;17.80;77.60
16503;DHT22;53067;48.114;11.694;2023-05-10T11:33:51;17.80;78.00
16503;DHT22;53067;48.114;11.694;2023-05-10T11:36:21;17.70;79.60
16503;DHT22;53067;48.114;11.694;2023-05-10T11:38:49;17.70;79.20
16503;DHT22;53067;48.114;11.694;2023-05-10T11:41:18;17.70;78.00
16503;DHT22;53067;48.114;11.694;2023-05-10T11:43:48;17.60;78.20
16503;DHT22;53067;48.114;11.694;2023-05-10T11:46:19;17.30;78.60
16503;DHT22;53067;48.114;11.694;2023-05-10T11:48:51;17.20;80.00
16503;DHT22;53067;48.114;11.694;2023-05-10T11:51:23;17.10;79.10
16503;DHT22;53067;48.114;11.694;2023-05-10T11:53:53;16.70;80.60
16503;DHT22;53067;48.114;11.694;2023-05-10T11:56:21;16.60;82.10
16503;DHT22;53067;48.114;11.694;2023-05-10T11:58:56;16.40;83.60
16503;DHT22;53067;48.114;11.694;2023-05-10T12:01:26;16.20;85.40
16503;DHT22;53067;48.114;11.694;2023-05-10T12:03:55;16.10;87.50
16503;DHT22;53067;48.114;11.694;2023-05-10T12:06:27;16.10;88.60
16503;DHT22;53067;48.114;11.694;2023-05-10T12:08:55;15.90;89.10
16503;DHT22;53067;48.114;11.694;2023-05-10T12:11:27;15.80;89.60
16503;DHT22;53067;48.114;11.694;2023-05-10T12:13:56;15.80;90.60
16503;DHT22;53067;48.114;11.694;2023-05-10T12:16:25;15.80;90.60
16503;DHT22;53067;48.114;11.694;2023-05-10T12:19:11;15.80;90.90
16503;DHT22;53067;48.114;11.694;2023-05-10T12:21:39;15.80;91.10
16503;DHT22;53067;48.114;11.694;2023-05-10T12:24:08;15.80;91.00
16503;DHT22;53067;48.114;11.694;2023-05-10T12:26:35;15.70;90.80
16503;DHT22;53067;48.114;11.694;2023-05-10T12:29:21;15.60;90.50
16503;DHT22;53067;48.114;11.694;2023-05-10T12:31:53;15.40;90.70
16503;DHT22;53067;48.114;11.694;2023-05-10T12:34:34;15.20;91.00
16503;DHT22;53067;48.114;11.694;2023-05-10T12:37:03;15.00;95.20
16503;DHT22;53067;48.114;11.694;2023-05-10T12:39:42;14.50;99.90
16503;DHT22;53067;48.114;11.694;2023-05-10T12:42:10;14.80;99.90
16503;DHT22;53067;48.114;11.694;2023-05-10T12:44:39;14.80;99.90
16503;DHT22;53067;48.114;11.694;2023-05-10T12:47:06;15.00;96.50
16503;DHT22;53067;48.114;11.694;2023-05-10T12:49:34;14.60;91.90
16503;DHT22;53067;48.114;11.694;2023-05-10T12:52:02;14.50;91.90
16503;DHT22;53067;48.114;11.694;2023-05-10T12:54:29;14.50;92.10
16503;DHT22;53067;48.114;11.694;2023-05-10T12:56:57;14.50;94.30
16503;DHT22;53067;48.114;11.694;2023-05-10T12:59:24;14.40;94.30
16503;DHT22;53067;48.114;11.694;2023-05-10T13:01:52;14.30;99.70
16503;DHT22;53067;48.114;11.694;2023-05-10T13:04:19;14.30;99.80
16503;DHT22;53067;48.114;11.694;2023-05-10T13:06:47;14.30;99.90
16503;DHT22;53067;48.114;11.694;2023-05-10T13:09:15;14.30;99.10
16503;DHT22;53067;48.114;11.694;2023-05-10T13:11:42;14.30;98.70
16503;DHT22;53067;48.114;11.694;2023-05-10T13:14:10;14.30;98.80
16503;DHT22;53067;48.114;11.694;2023-05-10T13:16:37;14.30;98.50
16503;DHT22;53067;48.114;11.694;2023-05-10T13:19:05;14.30;99.00
16503;DHT22;53067;48.114;11.694;2023-05-10T13:21:33;14.40;99.00
16503;DHT22;53067;48.114;11.694;2023-05-10T13:24:00;14.50;98.60
16503;DHT22;53067;48.114;11.694;2023-05-10T13:26:40;14.50;98.50
16503;DHT22;53067;48.114;11.694;2023-05-10T13:29:08;14.40;98.80
16503;DHT22;53067;48.114;11.694;2023-05-10T13:31:36;14.50;98.80
16503;DHT22;53067;48.114;11.694;2023-05-10T13:34:04;14.50;98.80
16503;DHT22;53067;48.114;11.694;2023-05-10T13:36:32;14.50;99.10
16503;DHT22;53067;48.114;11.694;2023-05-10T13:39:00;14.70;98.90
16503;DHT22;53067;48.114;11.694;2023-05-10T13:41:29;14.70;99.10
16503;DHT22;53067;48.114;11.694;2023-05-10T13:43:57;14.70;98.60
16503;DHT22;53067;48.114;11.694;2023-05-10T13:46:24;14.70;99.20
16503;DHT22;53067;48.114;11.694;2023-05-10T13:48:52;14.80;99.20
16503;DHT22;53067;48.114;11.694;2023-05-10T13:51:19;14.80;98.80
16503;DHT22;53067;48.114;11.694;2023-05-10T13:53:47;14.90;98.70
16503;DHT22;53067;48.114;11.694;2023-05-10T13:56:15;14.80;98.70
16503;DHT22;53067;48.114;11.694;2023-05-10T13:58:42;14.90;98.40
16503;DHT22;53067;48.114;11.694;2023-05-10T14:01:10;14.90;98.30
16503;DHT22;53067;48.114;11.694;2023-05-10T14:03:38;14.90;98.60
16503;DHT22;53067;48.114;11.694;2023-05-10T14:06:06;14.90;98.30
16503;DHT22;53067;48.114;11.694;2023-05-10T14:08:35;14.90;98.50
16503;DHT22;53067;48.114;11.694;2023-05-10T14:11:03;14.80;98.50
16503;DHT22;53067;48.114;11.694;2023-05-10T14:13:30;14.80;98.80
16503;DHT22;53067;48.114;11.694;2023-05-10T14:15:58;14.90;99.10
16503;DHT22;53067;48.114;11.694;2023-05-10T14:18:27;14.90;98.90
16503;DHT22;53067;48.114;11.694;2023-05-10T14:20:55;14.90;98.90
16503;DHT22;53067;48.114;11.694;2023-05-10T14:23:23;14.80;98.00
16503;DHT22;53067;48.114;11.694;2023-05-10T14:25:52;14.70;98.20
16503;DHT22;53067;48.114;11.694;2023-05-10T14:28:19;14.70;98.50
16503;DHT22;53067;48.114;11.694;2023-05-10T14:30:48;14.70;98.80
16503;DHT22;53067;48.114;11.694;2023-05-10T14:33:16;14.70;98.70
16503;DHT22;53067;48.114;11.694;2023-05-10T14:35:43;14.80;98.70
16503;DHT22;53067;48.114;11.694;2023-05-10T14:38:12;14.90;98.50
16503;DHT22;53067;48.114;11.694;2023-05-10T14:40:39;14.90;98.00
16503;DHT22;53067;48.114;11.694;2023-05-10T14:43:07;14.90;97.80
16503;DHT22;53067;48.114;11.694;2023-05-10T14:45:35;14.90;98.30
16503;DHT22;53067;48.114;11.694;2023-05-10T14:48:02;14.90;97.80
16503;DHT22;53067;48.114;11.694;2023-05-10T14:50:32;14.80;98.10
16503;DHT22;53067;48.114;11.694;2023-05-10T14:52:59;14.80;98.40
16503;DHT22;53067;48.114;11.694;2023-05-10T14:55:27;14.60;98.60
16503;DHT22;53067;48.114;11.694;2023-05-10T14:57:54;14.50;98.80
16503;DHT22;53067;48.114;11.694;2023-05-10T15:00:22;14.50;98.90
16503;DHT22;53067;48.114;11.694;2023-05-10T15:02:50;14.40;99.10
16503;DHT22;53067;48.114;11.694;2023-05-10T15:05:17;14.50;98.90
16503;DHT22;53067;48.114;11.694;2023-05-10T15:07:45;14.50;99.30
16503;DHT22;53067;48.114;11.694;2023-05-10T15:10:12;14.40;98.70
16503;DHT22;53067;48.114;11.694;2023-05-10T15:12:40;14.30;98.50
16503;DHT22;53067;48.114;11.694;2023-05-10T15:15:08;14.30;98.80
16503;DHT22;53067;48.114;11.694;2023-05-10T15:17:36;14.30;99.20
16503;DHT22;53067;48.114;11.694;2023-05-10T15:20:04;14.20;99.00
16503;DHT22;53067;48.114;11.694;2023-05-10T15:22:32;14.20;98.60
16503;DHT22;53067;48.114;11.694;2023-05-10T15:25:00;14.10;99.10
16503;DHT22;53067;48.114;11.694;2023-05-10T15:27:28;14.00;99.00
16503;DHT22;53067;48.114;11.694;2023-05-10T15:29:55;14.00;99.10
16503;DHT22;53067;48.114;11.694;2023-05-10T15:32:23;14.00;99.20
16503;DHT22;53067;48.114;11.694;2023-05-10T15:34:50;14.00;99.30
16503;DHT22;53067;48.114;11.694;2023-05-10T15:37:18;14.00;99.30
16503;DHT22;53067;48.114;11.694;2023-05-10T15:39:45;14.00;99.80
16503;DHT22;53067;48.114;11.694;2023-05-10T15:42:13;14.10;99.50
16503;DHT22;53067;48.114;11.694;2023-05-10T15:44:40;14.20;99.40
16503;DHT22;53067;48.114;11.694;2023-05-10T15:47:08;14.20;99.30
16503;DHT22;53067;48.114;11.694;2023-05-10T15:49:36;14.10;99.30
16503;DHT22;53067;48.114;11.694;2023-05-10T15:52:03;13.90;99.20
16503;DHT22;53067;48.114;11.694;2023-05-10T15:54:31;13.90;99.40
16503;DHT22;53067;48.114;11.694;2023-05-10T15:56:58;13.80;99.50
16503;DHT22;53067;48.114;11.694;2023-05-10T15:59:26;13.80;99.80
16503;DHT22;53067;48.114;11.694;2023-05-10T16:01:53;13.70;99.70